createdAt,value
2023-02-06T00:03:02.483Z,1033
2023-02-06T00:09:08.673Z,1033
2023-02-06T00:15:14.587Z,1033
2023-02-06T00:21:20.160Z,1033.1
2023-02-06T00:27:26.110Z,1033.1
2023-02-06T00:33:32.202Z,1033.1
2023-02-06T00:39:38.235Z,1033.2
2023-02-06T00:45:44.328Z,1033.2
2023-02-06T00:51:50.564Z,1033.2
2023-02-06T00:57:56.725Z,1033.1
2023-02-06T01:04:02.924Z,1033.1
2023-02-06T01:10:08.552Z,1033.2
2023-02-06T01:16:14.311Z,1033.3
2023-02-06T01:22:20.244Z,1033.3
2023-02-06T01:28:26.237Z,1033.3
2023-02-06T01:34:32.225Z,1033.2
2023-02-06T01:40:38.390Z,1033.1
2023-02-06T01:46:44.663Z,1033.2
2023-02-06T01:52:50.556Z,1033.2
2023-02-06T01:58:56.966Z,1033.2
2023-02-06T02:05:03.357Z,1033
2023-02-06T02:11:09.326Z,1033.1
2023-02-06T02:17:15.523Z,1033
2023-02-06T02:23:21.154Z,1033
2023-02-06T02:29:27.355Z,1033.1
2023-02-06T02:35:33.227Z,1033
2023-02-06T02:41:39.851Z,1033
2023-02-06T02:47:46.037Z,1032.8
2023-02-06T02:53:52.440Z,1032.8
2023-02-06T02:59:58.833Z,1032.8
2023-02-06T03:06:04.397Z,1032.8
2023-02-06T03:12:10.581Z,1032.9
2023-02-06T03:18:16.750Z,1033
2023-02-06T03:24:22.551Z,1033
2023-02-06T03:30:28.846Z,1033
2023-02-06T03:36:35.124Z,1033
2023-02-06T03:42:40.676Z,1033.1
2023-02-06T03:48:46.747Z,1033.1
2023-02-06T03:54:52.354Z,1033.2
2023-02-06T04:00:58.061Z,1033.4
2023-02-06T04:07:04.628Z,1033.4
2023-02-06T04:13:10.196Z,1033.4
2023-02-06T04:19:15.971Z,1033.4
2023-02-06T04:25:22.174Z,1033.3
2023-02-06T04:31:28.454Z,1033.3
2023-02-06T04:37:34.517Z,1033.1
2023-02-06T04:43:40.708Z,1033.1
2023-02-06T04:49:46.676Z,1033.1
2023-02-06T04:55:52.693Z,1033
2023-02-06T05:01:58.650Z,1033
2023-02-06T05:08:04.248Z,1033.1
2023-02-06T05:14:10.200Z,1033.1
2023-02-06T05:20:16.389Z,1033.1
2023-02-06T05:26:21.956Z,1033.1
2023-02-06T05:32:27.528Z,1033
2023-02-06T05:38:33.518Z,1032.9
2023-02-06T05:44:39.511Z,1032.8
2023-02-06T05:50:45.480Z,1032.8
2023-02-06T05:56:51.681Z,1032.7
2023-02-06T06:02:57.236Z,1032.7
2023-02-06T06:09:03.415Z,1032.7
2023-02-06T06:15:09.611Z,1032.7
2023-02-06T06:21:15.801Z,1032.7
2023-02-06T06:27:21.904Z,1032.7
2023-02-06T06:33:28.253Z,1032.9
2023-02-06T06:39:34.246Z,1032.9
2023-02-06T06:45:40.998Z,1032.7
2023-02-06T06:51:47.039Z,1032.8
2023-02-06T06:57:52.911Z,1032.9
2023-02-06T07:03:59.106Z,1032.8
2023-02-06T07:10:05.282Z,1032.8
2023-02-06T07:16:11.303Z,1032.8
2023-02-06T07:22:17.046Z,1032.8
2023-02-06T07:28:23.636Z,1032.9
2023-02-06T07:34:29.840Z,1033
2023-02-06T07:40:46.719Z,1032.9
2023-02-06T07:46:52.860Z,1032.9
2023-02-06T07:52:59.046Z,1032.9
2023-02-06T07:59:05.241Z,1033.1
2023-02-06T08:05:11.436Z,1033.1
2023-02-06T08:11:17.999Z,1033.2
2023-02-06T08:17:24.077Z,1033.1
2023-02-06T08:23:30.444Z,1033.2
2023-02-06T08:29:36.353Z,1033.2
2023-02-06T08:35:42.627Z,1033.3
2023-02-06T08:41:48.926Z,1033.2
2023-02-06T08:47:55.130Z,1033.3
2023-02-06T08:54:01.115Z,1033.4
2023-02-06T09:00:07.080Z,1033.3
2023-02-06T09:06:13.473Z,1033.2
2023-02-06T09:12:19.673Z,1033.2
2023-02-06T09:18:25.636Z,1033.2
2023-02-06T09:24:31.841Z,1033.2
2023-02-06T09:30:37.945Z,1033.3
2023-02-06T09:36:44.393Z,1033.2
2023-02-06T09:42:49.982Z,1033.3
2023-02-06T09:48:56.347Z,1033.3
2023-02-06T09:55:02.378Z,1033.2
2023-02-06T10:01:08.527Z,1033.1
2023-02-06T10:07:13.710Z,1033.2
2023-02-06T10:13:20.068Z,1033
2023-02-06T10:19:26.267Z,1033
2023-02-06T10:25:32.650Z,1033
2023-02-06T10:31:39.691Z,1032.9
2023-02-06T10:37:45.643Z,1032.7
2023-02-06T10:43:51.844Z,1032.6
2023-02-06T10:49:58.566Z,1032.4
2023-02-06T10:56:04.630Z,1032.3
2023-02-06T11:02:11.024Z,1032.3
2023-02-06T11:08:17.604Z,1032.1
2023-02-06T11:14:26.051Z,1032.1
2023-02-06T11:20:32.034Z,1032
2023-02-06T11:26:38.428Z,1031.9
2023-02-06T11:33:03.577Z,1031.8
2023-02-06T11:39:10.678Z,1031.7
2023-02-06T11:45:16.852Z,1031.7
2023-02-06T11:51:23.028Z,1031.6
2023-02-06T11:57:28.880Z,1031.6
2023-02-06T12:03:35.238Z,1031.5
2023-02-06T12:09:41.597Z,1031.4
2023-02-06T12:15:50.300Z,1031.4
2023-02-06T12:21:59.495Z,1031.3
2023-02-06T12:28:05.938Z,1031.5
2023-02-06T12:34:12.121Z,1031.4
2023-02-06T12:40:18.458Z,1031.4
2023-02-06T12:46:24.508Z,1031.1
2023-02-06T12:52:30.440Z,1030.9
2023-02-06T12:58:36.290Z,1030.8
2023-02-06T13:04:42.036Z,1030.8
2023-02-06T13:10:47.954Z,1030.8
2023-02-06T13:16:53.404Z,1030.8
2023-02-06T13:22:59.390Z,1030.8
2023-02-06T13:29:04.889Z,1030.9
2023-02-06T13:35:10.653Z,1031
2023-02-06T13:41:17.237Z,1031.1
2023-02-06T13:47:22.841Z,1031.2
2023-02-06T13:53:28.481Z,1031.1
2023-02-06T13:59:34.394Z,1031.1
2023-02-06T14:05:40.769Z,1031.1
2023-02-06T14:11:46.741Z,1031.1
2023-02-06T14:17:53.696Z,1031
2023-02-06T14:24:01.226Z,1031.1
2023-02-06T14:30:06.850Z,1031.1
2023-02-06T14:36:12.789Z,1030.9
2023-02-06T14:42:18.589Z,1030.9
2023-02-06T14:48:24.347Z,1030.9
2023-02-06T14:54:30.508Z,1030.7
2023-02-06T15:00:35.709Z,1030.8
2023-02-06T15:06:41.681Z,1030.7
2023-02-06T15:12:47.852Z,1030.7
2023-02-06T15:18:53.613Z,1030.7
2023-02-06T15:24:59.129Z,1030.8
2023-02-06T15:31:04.824Z,1030.8
2023-02-06T15:37:10.480Z,1030.8
2023-02-06T15:43:16.248Z,1030.8
2023-02-06T15:49:22.234Z,1030.8
2023-02-06T15:55:28.219Z,1030.7
2023-02-06T16:01:36.983Z,1030.7
2023-02-06T16:07:42.746Z,1030.8
2023-02-06T16:13:48.530Z,1030.8
2023-02-06T16:19:54.075Z,1030.9
2023-02-06T16:25:59.830Z,1030.9
2023-02-06T16:32:06.005Z,1031.1
2023-02-06T16:38:11.788Z,1031.1
2023-02-06T16:44:17.482Z,1031.2
2023-02-06T16:50:23.764Z,1031.3
2023-02-06T16:56:29.454Z,1031.4
2023-02-06T17:02:35.035Z,1031.5
2023-02-06T17:08:40.801Z,1031.5
2023-02-06T17:14:45.977Z,1031.6
2023-02-06T17:20:51.739Z,1031.8
2023-02-06T17:26:57.317Z,1031.9
2023-02-06T17:33:03.114Z,1031.8
2023-02-06T17:39:08.885Z,1031.8
2023-02-06T17:45:14.656Z,1031.7
2023-02-06T17:51:20.838Z,1031.7
2023-02-06T17:57:26.621Z,1031.7
2023-02-06T18:03:32.794Z,1031.7
2023-02-06T18:09:40.386Z,1031.7
2023-02-06T18:15:48.057Z,1031.7
2023-02-06T18:21:53.895Z,1031.7
2023-02-06T18:27:59.192Z,1031.7
2023-02-06T18:34:05.168Z,1031.6
2023-02-06T18:40:11.360Z,1031.7
2023-02-06T18:46:17.614Z,1031.6
2023-02-06T18:52:23.533Z,1031.5
2023-02-06T18:58:30.110Z,1031.5
2023-02-06T19:04:36.164Z,1031.6
2023-02-06T19:10:42.281Z,1031.6
2023-02-06T19:16:48.677Z,1031.5
2023-02-06T19:22:54.876Z,1031.5
2023-02-06T19:29:01.317Z,1031.6
2023-02-06T19:35:07.647Z,1031.6
2023-02-06T19:41:13.626Z,1031.7
2023-02-06T19:47:19.614Z,1031.7
2023-02-06T19:53:25.590Z,1031.7
2023-02-06T19:59:31.785Z,1031.6
2023-02-06T20:05:38.028Z,1031.5
2023-02-06T20:11:44.420Z,1031.6
2023-02-06T20:17:50.351Z,1031.7
2023-02-06T20:23:56.737Z,1031.6
2023-02-06T20:30:03.103Z,1031.6
2023-02-06T20:36:09.327Z,1031.4
2023-02-06T20:42:15.282Z,1031.8
2023-02-06T20:48:21.668Z,1031.8
2023-02-06T20:54:28.170Z,1031.8
2023-02-06T21:00:35.596Z,1032
2023-02-06T21:06:42.916Z,1031.9
2023-02-06T21:12:48.875Z,1031.9
2023-02-06T21:18:55.276Z,1031.9
2023-02-06T21:25:00.942Z,1032
2023-02-06T21:31:07.011Z,1031.9
2023-02-06T21:37:13.621Z,1031.8
2023-02-06T21:43:20.225Z,1031.9
2023-02-06T21:49:26.394Z,1032
2023-02-06T21:55:32.467Z,1032
2023-02-06T22:01:38.688Z,1032
2023-02-06T22:07:44.624Z,1031.8
2023-02-06T22:13:50.757Z,1031.6
2023-02-06T22:19:56.915Z,1031.7
2023-02-06T22:26:02.923Z,1031.7
2023-02-06T22:32:08.675Z,1031.5
2023-02-06T22:38:15.071Z,1031.5
2023-02-06T22:44:20.763Z,1031.4
2023-02-06T22:50:26.836Z,1031.3
2023-02-06T22:56:32.820Z,1031.3
2023-02-06T23:02:38.620Z,1031.4
2023-02-06T23:08:44.273Z,1031.7
2023-02-06T23:14:50.546Z,1031.8
2023-02-06T23:20:56.621Z,1031.9
2023-02-06T23:27:02.517Z,1031.9
2023-02-06T23:33:08.709Z,1031.9
2023-02-06T23:39:14.943Z,1032
2023-02-06T23:45:21.079Z,1032.1
2023-02-06T23:51:27.470Z,1032.3
2023-02-06T23:57:33.462Z,1032.3
